Time;durP1;ratioP1;P1;durP2;ratioP2;P2;SDS_P1;SDS_P2;PMS_P1;PMS_P2;Temp;Humidity;BMP_temperature;BMP_pressure;BME280_temperature;BME280_humidity;BME280_pressure;Samples;Min_cycle;Max_cycle;Signal;HPM_P1;HPM_P2
2023/12/02 00:02:25;;;;;;;1.80;1.70;;;-0.20;98.20;;;;;;5010808;28;20846;-79
2023/12/02 00:04:52;;;;;;;1.70;1.60;;;-0.20;98.20;;;;;;5013503;28;20537;-79
2023/12/02 00:07:19;;;;;;;1.80;1.70;;;-0.20;98.20;;;;;;5015836;28;20484;-80
2023/12/02 00:09:46;;;;;;;1.70;1.60;;;-0.20;98.20;;;;;;5018252;28;20555;-80
2023/12/02 00:12:14;;;;;;;1.80;1.70;;;-0.20;98.20;;;;;;5015962;28;20484;-81
2023/12/02 00:14:41;;;;;;;1.80;1.70;;;-0.20;98.20;;;;;;5014834;28;20479;-78
2023/12/02 00:17:07;;;;;;;1.70;1.60;;;-0.30;98.20;;;;;;5018532;28;20852;-80
2023/12/02 00:19:34;;;;;;;1.80;1.70;;;-0.30;98.20;;;;;;5009477;28;20474;-80
2023/12/02 00:22:01;;;;;;;2.00;1.90;;;-0.20;98.20;;;;;;5015959;28;20468;-79
2023/12/02 00:24:28;;;;;;;2.40;2.20;;;-0.20;98.20;;;;;;5017790;28;20471;-80
2023/12/02 00:26:55;;;;;;;1.70;1.60;;;-0.20;98.20;;;;;;5012330;28;20480;-80
2023/12/02 00:29:23;;;;;;;1.70;1.60;;;-0.10;98.20;;;;;;5009766;28;20480;-80
2023/12/02 00:31:50;;;;;;;1.80;1.70;;;-0.10;98.20;;;;;;5008305;28;20500;-81
2023/12/02 00:34:17;;;;;;;1.70;1.60;;;-0.10;98.20;;;;;;5014553;28;20474;-81
2023/12/02 00:36:46;;;;;;;1.70;1.60;;;-0.10;98.20;;;;;;5012852;28;20487;-81
2023/12/02 00:39:13;;;;;;;1.90;1.80;;;-0.10;98.20;;;;;;5012571;28;20455;-80
2023/12/02 00:41:40;;;;;;;1.80;1.70;;;-0.10;98.20;;;;;;5008111;28;20466;-81
2023/12/02 00:44:06;;;;;;;1.70;1.60;;;-0.10;98.20;;;;;;5012504;28;21464;-81
2023/12/02 00:46:35;;;;;;;1.70;1.60;;;-0.10;98.20;;;;;;5010705;28;20480;-80
2023/12/02 00:49:02;;;;;;;1.70;1.60;;;-0.10;98.20;;;;;;5015984;28;20490;-81
2023/12/02 00:51:29;;;;;;;1.70;1.60;;;0.00;98.20;;;;;;5012202;28;20586;-81
2023/12/02 00:53:56;;;;;;;1.80;1.70;;;0.00;98.20;;;;;;5017243;28;20559;-81
2023/12/02 00:56:22;;;;;;;1.80;1.70;;;-0.10;98.20;;;;;;5011901;28;20847;-81
2023/12/02 00:58:49;;;;;;;1.70;1.60;;;0.00;98.20;;;;;;5007850;28;20470;-80
2023/12/02 01:01:16;;;;;;;1.70;1.60;;;0.00;98.20;;;;;;5014496;28;20460;-80
2023/12/02 01:03:44;;;;;;;1.70;1.60;;;0.00;98.20;;;;;;5014810;28;20987;-81
2023/12/02 01:06:11;;;;;;;1.70;1.60;;;0.00;98.20;;;;;;5015378;28;20956;-80
2023/12/02 01:08:38;;;;;;;1.70;1.50;;;0.00;98.20;;;;;;5008573;28;20511;-79
2023/12/02 01:11:06;;;;;;;1.70;1.57;;;0.00;98.20;;;;;;5011945;28;20495;-81
2023/12/02 01:13:32;;;;;;;1.80;1.70;;;0.00;98.20;;;;;;5015486;28;20491;-81
2023/12/02 01:15:59;;;;;;;1.70;1.60;;;0.10;98.20;;;;;;5017843;28;20550;-80
2023/12/02 01:18:26;;;;;;;1.70;1.60;;;0.10;98.20;;;;;;5010743;28;20514;-81
2023/12/02 01:20:54;;;;;;;1.80;1.70;;;0.00;98.20;;;;;;5014942;28;20456;-80
2023/12/02 01:23:21;;;;;;;1.70;1.60;;;0.00;98.20;;;;;;5011970;28;20456;-81
2023/12/02 01:25:48;;;;;;;1.80;1.70;;;0.00;98.20;;;;;;5015443;28;21077;-80
2023/12/02 01:28:14;;;;;;;1.80;1.70;;;0.00;98.20;;;;;;5013334;28;20757;-79
2023/12/02 01:30:41;;;;;;;1.80;1.70;;;0.00;98.20;;;;;;5015478;28;22960;-79
2023/12/02 01:33:08;;;;;;;1.70;1.60;;;0.00;98.20;;;;;;5019311;28;20637;-79
2023/12/02 01:35:35;;;;;;;1.80;1.70;;;0.00;98.20;;;;;;5017262;28;20472;-80
2023/12/02 01:38:03;;;;;;;1.80;1.70;;;0.00;98.20;;;;;;5011916;28;20484;-80
2023/12/02 01:40:30;;;;;;;1.70;1.60;;;0.00;98.20;;;;;;5014080;28;20546;-81
2023/12/02 01:42:57;;;;;;;1.80;1.70;;;0.00;98.20;;;;;;5015650;28;20539;-81
2023/12/02 01:45:24;;;;;;;1.80;1.70;;;0.00;98.20;;;;;;5014185;28;20467;-81
2023/12/02 01:47:51;;;;;;;1.70;1.60;;;0.00;98.20;;;;;;5013941;28;20547;-80
2023/12/02 01:50:19;;;;;;;1.70;1.60;;;0.00;98.20;;;;;;5011512;28;20461;-81
2023/12/02 01:52:46;;;;;;;1.73;1.63;;;0.00;98.20;;;;;;5011910;28;20492;-80
2023/12/02 01:55:14;;;;;;;1.70;1.53;;;0.00;98.20;;;;;;5010352;28;20474;-81
2023/12/02 01:57:41;;;;;;;1.80;1.70;;;0.00;98.20;;;;;;5013467;28;20486;-80
2023/12/02 02:00:10;;;;;;;1.70;1.60;;;-0.10;98.20;;;;;;5014010;28;20464;-80
2023/12/02 02:02:37;;;;;;;1.80;1.70;;;-0.10;98.20;;;;;;5013492;28;20464;-80
2023/12/02 02:05:04;;;;;;;1.80;1.70;;;-0.10;98.20;;;;;;5016157;28;20468;-81
2023/12/02 02:07:31;;;;;;;1.70;1.60;;;-0.10;98.20;;;;;;5019108;28;20522;-81
2023/12/02 02:09:58;;;;;;;1.70;1.60;;;-0.10;98.20;;;;;;5016673;28;20468;-81
2023/12/02 02:12:28;;;;;;;1.70;1.60;;;-0.10;98.20;;;;;;5013753;28;20490;-80
2023/12/02 02:14:55;;;;;;;1.70;1.60;;;-0.10;98.20;;;;;;5017049;28;20547;-79
2023/12/02 02:17:22;;;;;;;1.70;1.60;;;-0.10;98.20;;;;;;5008029;28;20786;-80
2023/12/02 02:19:49;;;;;;;1.80;1.70;;;-0.10;98.20;;;;;;5014195;28;20492;-81
2023/12/02 02:22:17;;;;;;;2.27;2.07;;;-0.10;98.20;;;;;;5014924;28;20464;-82
2023/12/02 02:24:44;;;;;;;1.70;1.60;;;-0.10;98.20;;;;;;5015898;28;20464;-80
2023/12/02 02:27:11;;;;;;;1.70;1.60;;;-0.10;98.20;;;;;;5014872;28;20538;-78
2023/12/02 02:29:38;;;;;;;1.80;1.70;;;-0.10;98.20;;;;;;5013374;28;20473;-81
2023/12/02 02:32:07;;;;;;;1.70;1.60;;;-0.10;98.20;;;;;;5011236;28;20538;-80
2023/12/02 02:34:34;;;;;;;1.70;1.60;;;-0.10;98.20;;;;;;5013941;28;20550;-81
2023/12/02 02:37:01;;;;;;;1.80;1.70;;;-0.10;98.20;;;;;;5012406;28;20599;-81
2023/12/02 02:39:29;;;;;;;1.80;1.70;;;-0.10;98.20;;;;;;5009722;28;20475;-81
2023/12/02 02:41:56;;;;;;;1.70;1.60;;;-0.10;98.20;;;;;;5013594;28;20460;-80
2023/12/02 02:44:23;;;;;;;2.10;2.00;;;-0.10;98.20;;;;;;5011186;28;20542;-80
2023/12/02 02:46:50;;;;;;;1.90;1.80;;;-0.10;98.20;;;;;;5015534;28;20487;-81
2023/12/02 02:49:17;;;;;;;1.70;1.60;;;0.00;98.20;;;;;;5012520;28;20922;-81
2023/12/02 02:51:43;;;;;;;1.80;1.70;;;0.00;98.20;;;;;;5001411;28;20867;-81
2023/12/02 02:54:10;;;;;;;1.70;1.60;;;0.00;98.20;;;;;;5010397;28;20645;-81
2023/12/02 02:56:38;;;;;;;1.60;1.50;;;0.00;98.20;;;;;;5011352;28;20468;-80
2023/12/02 02:59:06;;;;;;;1.70;1.60;;;0.10;98.20;;;;;;5010592;28;20457;-80
2023/12/02 03:01:33;;;;;;;3.10;2.80;;;0.10;98.20;;;;;;5010911;28;20483;-81
2023/12/02 03:04:00;;;;;;;1.80;1.70;;;0.00;98.20;;;;;;5013435;28;20467;-79
2023/12/02 03:06:27;;;;;;;1.70;1.60;;;0.00;98.20;;;;;;5019723;28;20527;-80
2023/12/02 03:08:54;;;;;;;1.70;1.60;;;0.00;98.20;;;;;;5023841;28;20523;-80
2023/12/02 03:11:21;;;;;;;1.70;1.50;;;0.00;98.20;;;;;;5010186;28;20492;-81
2023/12/02 03:13:49;;;;;;;1.80;1.70;;;0.00;98.20;;;;;;5010957;28;20547;-81
2023/12/02 03:16:16;;;;;;;2.90;2.70;;;0.00;98.20;;;;;;5010912;28;20471;-81
2023/12/02 03:18:43;;;;;;;1.90;1.80;;;0.10;98.20;;;;;;5008308;28;20571;-80
2023/12/02 03:21:10;;;;;;;1.80;1.70;;;0.00;98.20;;;;;;5009822;28;20518;-81
2023/12/02 03:23:37;;;;;;;1.70;1.60;;;0.00;98.20;;;;;;5009336;28;21026;-81
2023/12/02 03:26:04;;;;;;;1.70;1.60;;;0.00;98.20;;;;;;5008289;28;20460;-82
2023/12/02 03:28:31;;;;;;;1.70;1.60;;;0.00;98.20;;;;;;5013141;28;20488;-80
2023/12/02 03:31:01;;;;;;;2.43;2.23;;;0.00;98.20;;;;;;5010624;28;20452;-82
2023/12/02 03:33:27;;;;;;;1.80;1.70;;;0.00;98.20;;;;;;5008679;28;20540;-80
2023/12/02 03:35:55;;;;;;;1.70;1.60;;;-0.10;98.20;;;;;;5010240;28;20539;-81
2023/12/02 03:38:21;;;;;;;1.70;1.60;;;-0.10;98.20;;;;;;5010763;28;20481;-81
2023/12/02 03:40:48;;;;;;;1.77;1.67;;;-0.10;98.20;;;;;;5010178;28;20463;-80
2023/12/02 03:43:15;;;;;;;1.70;1.60;;;-0.10;98.20;;;;;;5013629;28;20972;-81
2023/12/02 03:45:42;;;;;;;1.70;1.60;;;-0.10;98.20;;;;;;5009659;28;20492;-79
2023/12/02 03:48:10;;;;;;;1.70;1.60;;;-0.10;98.20;;;;;;5012060;28;20869;-80
2023/12/02 03:50:37;;;;;;;1.80;1.70;;;-0.10;98.20;;;;;;5008166;28;20464;-79
2023/12/02 03:53:04;;;;;;;1.70;1.60;;;-0.10;98.20;;;;;;5010556;28;20871;-80
2023/12/02 03:55:31;;;;;;;1.80;1.70;;;-0.10;98.20;;;;;;5009296;28;21376;-81
2023/12/02 03:57:58;;;;;;;1.70;1.60;;;-0.10;98.20;;;;;;5006731;28;20488;-81
2023/12/02 04:00:24;;;;;;;1.80;1.70;;;-0.10;98.20;;;;;;5008727;28;20841;-81
2023/12/02 04:02:52;;;;;;;1.70;1.60;;;-0.10;98.20;;;;;;5010232;28;20461;-79
2023/12/02 04:05:20;;;;;;;1.83;1.73;;;-0.10;98.20;;;;;;5009861;28;20514;-79
2023/12/02 04:07:47;;;;;;;1.70;1.60;;;-0.10;98.20;;;;;;5003901;28;20487;-81
2023/12/02 04:10:13;;;;;;;1.70;1.60;;;-0.20;98.20;;;;;;5010714;28;20464;-80
2023/12/02 04:12:41;;;;;;;1.87;1.77;;;-0.10;98.20;;;;;;5009835;28;20499;-79
2023/12/02 04:15:08;;;;;;;1.80;1.70;;;-0.10;98.20;;;;;;5009528;28;20503;-81
2023/12/02 04:17:35;;;;;;;1.80;1.70;;;-0.10;98.20;;;;;;5006529;28;20484;-80
2023/12/02 04:20:08;;;;;;;1.70;1.60;;;0.00;98.20;;;;;;5010213;28;20494;-81
2023/12/02 04:22:38;;;;;;;1.70;1.60;;;0.00;98.20;;;;;;5008132;28;20535;-80
2023/12/02 04:25:06;;;;;;;1.70;1.60;;;0.00;98.20;;;;;;5013383;28;20468;-80
2023/12/02 04:27:33;;;;;;;1.70;1.60;;;-0.10;98.20;;;;;;5009102;28;20731;-81
2023/12/02 04:30:00;;;;;;;1.70;1.60;;;-0.10;98.20;;;;;;5010280;28;20515;-79
2023/12/02 04:32:27;;;;;;;1.70;1.60;;;-0.10;98.20;;;;;;5009033;28;20586;-79
2023/12/02 04:34:54;;;;;;;1.70;1.60;;;-0.10;98.20;;;;;;5009823;28;20974;-79
2023/12/02 04:37:24;;;;;;;1.70;1.60;;;-0.10;98.20;;;;;;5009065;28;20483;-79
2023/12/02 04:39:52;;;;;;;1.70;1.60;;;-0.10;98.20;;;;;;5010110;28;20460;-79
2023/12/02 04:42:19;;;;;;;1.80;1.70;;;-0.10;98.20;;;;;;5004113;28;20460;-79
2023/12/02 04:44:45;;;;;;;1.70;1.60;;;-0.10;98.20;;;;;;5005941;28;20526;-81
2023/12/02 04:47:12;;;;;;;1.70;1.60;;;-0.10;98.20;;;;;;5011921;28;20497;-81
2023/12/02 04:49:40;;;;;;;1.70;1.60;;;-0.10;98.20;;;;;;5008743;28;20472;-80
2023/12/02 04:52:08;;;;;;;1.70;1.60;;;-0.10;98.20;;;;;;5008084;28;20488;-80
2023/12/02 04:54:35;;;;;;;1.70;1.60;;;-0.10;98.20;;;;;;5010231;28;20495;-81
2023/12/02 04:57:03;;;;;;;1.70;1.60;;;-0.10;98.20;;;;;;5011744;28;20868;-81
2023/12/02 04:59:30;;;;;;;1.90;1.80;;;-0.10;98.20;;;;;;5008721;28;20467;-81
2023/12/02 05:01:56;;;;;;;1.70;1.60;;;-0.10;98.20;;;;;;5012641;28;20474;-81
2023/12/02 05:04:23;;;;;;;1.80;1.70;;;-0.10;98.20;;;;;;5018975;28;20482;-81
2023/12/02 05:06:53;;;;;;;1.80;1.70;;;-0.20;98.20;;;;;;5026907;28;20526;-81
2023/12/02 05:09:20;;;;;;;1.70;1.60;;;-0.20;98.20;;;;;;5014410;28;20499;-80
2023/12/02 05:11:47;;;;;;;1.70;1.60;;;-0.20;98.20;;;;;;5006620;28;20468;-80
2023/12/02 05:14:15;;;;;;;1.70;1.60;;;-0.10;98.20;;;;;;5009944;28;20471;-79
2023/12/02 05:16:42;;;;;;;1.67;1.50;;;-0.10;98.20;;;;;;5013528;28;20575;-79
2023/12/02 05:19:09;;;;;;;1.80;1.70;;;-0.10;98.20;;;;;;5017819;28;20460;-81
2023/12/02 05:21:37;;;;;;;1.73;1.63;;;-0.10;98.20;;;;;;5019930;28;20460;-79
2023/12/02 05:24:03;;;;;;;1.67;1.57;;;-0.10;98.20;;;;;;5014861;28;20558;-81
2023/12/02 05:26:31;;;;;;;1.93;1.83;;;-0.10;98.20;;;;;;5013944;28;20493;-81
2023/12/02 05:28:59;;;;;;;1.70;1.60;;;-0.20;98.20;;;;;;5013925;28;20518;-81
2023/12/02 05:31:27;;;;;;;1.90;1.80;;;-0.20;98.20;;;;;;5013569;28;20464;-81
2023/12/02 05:33:54;;;;;;;1.70;1.60;;;-0.20;98.20;;;;;;5013866;28;20487;-81
2023/12/02 05:36:21;;;;;;;1.90;1.80;;;-0.10;98.20;;;;;;5014344;28;20468;-79
2023/12/02 05:38:48;;;;;;;1.70;1.60;;;-0.10;98.20;;;;;;5019089;28;20464;-80
2023/12/02 05:41:14;;;;;;;1.80;1.70;;;-0.20;98.20;;;;;;5014346;28;20558;-81
2023/12/02 05:43:41;;;;;;;1.90;1.80;;;-0.20;98.20;;;;;;5018023;28;20534;-83
2023/12/02 05:46:08;;;;;;;1.70;1.60;;;-0.20;98.20;;;;;;5014343;28;20490;-80
2023/12/02 05:48:37;;;;;;;1.80;1.60;;;-0.10;98.20;;;;;;5014595;28;20907;-80
2023/12/02 05:51:04;;;;;;;1.70;1.60;;;-0.20;98.20;;;;;;5012557;28;20464;-81
2023/12/02 05:53:32;;;;;;;5.87;3.93;;;-0.20;98.20;;;;;;5011507;28;20562;-80
2023/12/02 05:55:58;;;;;;;1.73;1.63;;;-0.20;98.20;;;;;;5013203;28;20468;-79
2023/12/02 05:58:27;;;;;;;1.70;1.57;;;-0.20;98.20;;;;;;5012218;28;20479;-82
2023/12/02 06:00:54;;;;;;;1.73;1.63;;;-0.20;98.20;;;;;;5013307;28;20475;-82
2023/12/02 06:03:21;;;;;;;1.70;1.60;;;-0.20;98.20;;;;;;5012878;28;20464;-81
2023/12/02 06:05:49;;;;;;;1.67;1.50;;;-0.20;98.20;;;;;;5007375;28;20460;-82
2023/12/02 06:08:16;;;;;;;1.70;1.60;;;-0.20;98.20;;;;;;5014008;28;20575;-82
2023/12/02 06:10:43;;;;;;;1.80;1.70;;;-0.20;98.20;;;;;;5013099;28;20468;-82
2023/12/02 06:13:09;;;;;;;1.80;1.70;;;-0.20;98.20;;;;;;5012267;28;20945;-80
2023/12/02 06:15:36;;;;;;;2.87;2.67;;;-0.20;98.20;;;;;;5012599;28;20463;-81
2023/12/02 06:18:03;;;;;;;1.70;1.60;;;-0.20;98.20;;;;;;5016851;28;20866;-81
2023/12/02 06:20:30;;;;;;;1.70;1.60;;;-0.30;98.20;;;;;;5010357;28;20467;-80
2023/12/02 06:22:58;;;;;;;1.80;1.70;;;-0.20;98.20;;;;;;5014519;28;20500;-81
2023/12/02 06:25:25;;;;;;;1.70;1.60;;;-0.20;98.20;;;;;;5011564;28;20490;-78
2023/12/02 06:27:52;;;;;;;1.70;1.60;;;-0.20;98.20;;;;;;5011514;28;20505;-78
2023/12/02 06:30:19;;;;;;;1.90;1.80;;;-0.30;98.20;;;;;;5011228;28;20551;-79
2023/12/02 06:32:46;;;;;;;1.77;1.67;;;-0.20;98.20;;;;;;5016912;28;20582;-78
2023/12/02 06:35:13;;;;;;;3.63;3.40;;;-0.20;98.20;;;;;;5017751;28;20460;-78
2023/12/02 06:37:40;;;;;;;1.70;1.60;;;-0.20;98.20;;;;;;5016078;28;20531;-78
2023/12/02 06:40:09;;;;;;;1.70;1.60;;;-0.20;98.20;;;;;;5017293;28;20536;-78
2023/12/02 06:42:36;;;;;;;1.70;1.60;;;-0.20;98.20;;;;;;5015869;28;20903;-78
2023/12/02 06:45:03;;;;;;;1.83;1.73;;;-0.20;98.20;;;;;;5011623;28;20979;-79
2023/12/02 06:47:31;;;;;;;1.90;1.80;;;-0.20;98.20;;;;;;5013164;28;20490;-78
2023/12/02 06:49:58;;;;;;;1.70;1.60;;;-0.20;98.20;;;;;;5014667;28;20473;-79
2023/12/02 06:52:28;;;;;;;1.70;1.57;;;-0.30;98.20;;;;;;5011681;28;20505;-78
2023/12/02 06:54:54;;;;;;;1.87;1.77;;;-0.30;98.20;;;;;;5010451;28;20467;-78
2023/12/02 06:57:23;;;;;;;1.90;1.80;;;-0.30;98.20;;;;;;5015348;28;20488;-79
2023/12/02 06:59:51;;;;;;;1.70;1.60;;;-0.30;98.20;;;;;;5010306;28;20464;-77
2023/12/02 07:02:20;;;;;;;1.80;1.70;;;-0.30;98.20;;;;;;5009366;28;20558;-80
2023/12/02 07:04:47;;;;;;;1.80;1.70;;;-0.30;98.20;;;;;;5018179;28;20467;-80
2023/12/02 07:07:16;;;;;;;1.80;1.70;;;-0.40;98.20;;;;;;5017820;28;20566;-79
2023/12/02 07:09:47;;;;;;;1.70;1.60;;;-0.30;98.20;;;;;;5005465;28;20484;-80
2023/12/02 07:12:56;;;;;;;1.90;1.80;;;-0.30;98.20;;;;;;4999604;28;21078;-80
2023/12/02 07:15:59;;;;;;;1.80;1.70;;;-0.30;98.20;;;;;;4976105;28;20463;-80
2023/12/02 07:21:56;;;;;;;1.70;1.60;;;-0.30;98.20;;;;;;4958793;28;20479;-80
2023/12/02 07:24:23;;;;;;;1.70;1.60;;;-0.20;98.20;;;;;;4963003;28;20471;-81
2023/12/02 07:26:50;;;;;;;1.80;1.70;;;-0.30;98.20;;;;;;4992070;28;20732;-80
2023/12/02 07:29:16;;;;;;;1.80;1.70;;;-0.30;98.20;;;;;;5001172;28;20500;-80
2023/12/02 07:31:46;;;;;;;1.70;1.60;;;-0.30;98.20;;;;;;5002648;28;20468;-80
2023/12/02 07:34:39;;;;;;;1.70;1.60;;;-0.20;98.20;;;;;;4996178;28;20485;-80
2023/12/02 07:37:12;;;;;;;1.70;1.60;;;-0.20;98.20;;;;;;5011267;28;20472;-80
2023/12/02 07:39:45;;;;;;;2.33;2.13;;;-0.20;98.20;;;;;;4999784;28;20680;-81
2023/12/02 07:42:32;;;;;;;2.30;2.10;;;-0.20;98.20;;;;;;4993816;28;20484;-82
2023/12/02 07:44:59;;;;;;;2.40;2.20;;;-0.20;98.20;;;;;;5001399;28;20547;-79
2023/12/02 07:47:30;;;;;;;1.70;1.60;;;-0.20;98.20;;;;;;5002045;28;20502;-79
2023/12/02 07:49:58;;;;;;;1.70;1.60;;;-0.20;98.20;;;;;;4995072;28;20527;-79
2023/12/02 07:52:59;;;;;;;1.70;1.60;;;-0.10;98.20;;;;;;4996651;28;20511;-78
2023/12/02 08:05:44;;;;;;;1.80;1.70;;;-0.10;98.20;;;;;;4986275;28;20464;-79
2023/12/02 08:08:37;;;;;;;;;;;;;;;;;;;;;
2023/12/02 08:11:40;;;;;;;1.70;1.60;;;-0.10;98.20;;;;;;5041098;28;20478;-79
2023/12/02 08:14:07;;;;;;;1.70;1.60;;;-0.10;98.20;;;;;;5045954;28;20539;-78
2023/12/02 08:20:05;;;;;;;;;;;;;;;;;;;;;
2023/12/02 08:22:45;;;;;;;1.63;1.53;;;0.00;98.20;;;;;;5056313;28;20934;-80
2023/12/02 08:25:35;;;;;;;1.80;1.70;;;0.10;98.20;;;;;;5046778;28;20458;-80
2023/12/02 08:38:43;;;;;;;1.70;1.60;;;0.20;98.20;;;;;;4973794;28;20487;-78
2023/12/02 08:41:36;;;;;;;1.70;1.60;;;0.20;98.20;;;;;;5051375;28;20462;-78
2023/12/02 08:44:06;;;;;;;1.70;1.60;;;0.20;98.20;;;;;;5050441;28;20558;-78
2023/12/02 08:46:33;;;;;;;1.70;1.60;;;0.20;98.20;;;;;;5050766;28;20473;-79
2023/12/02 08:49:01;;;;;;;1.70;1.60;;;0.20;98.20;;;;;;5045911;28;20458;-78
2023/12/02 08:51:28;;;;;;;1.63;1.53;;;0.20;98.20;;;;;;5049272;28;20466;-78
2023/12/02 08:54:27;;;;;;;1.70;1.60;;;0.30;98.20;;;;;;5045130;28;21005;-78
2023/12/02 09:03:03;;;;;;;1.70;1.60;;;0.40;98.20;;;;;;5044438;28;20526;-79
2023/12/02 09:16:06;;;;;;;;;;;;;;;;;;;;;
2023/12/02 09:18:50;;;;;;;1.67;1.50;;;0.40;98.20;;;;;;5047905;28;20484;-79
2023/12/02 09:21:59;;;;;;;1.70;1.60;;;0.50;98.20;;;;;;5050114;28;20897;-79
2023/12/02 09:25:23;;;;;;;1.67;1.50;;;0.50;98.20;;;;;;5051774;28;20859;-79
2023/12/02 09:28:15;;;;;;;1.67;1.50;;;0.60;98.20;;;;;;4980836;28;20731;-78
2023/12/02 09:30:58;;;;;;;1.70;1.50;;;0.70;98.20;;;;;;5049792;28;20478;-78
2023/12/02 09:46:57;;;;;;;1.70;1.50;;;1.00;98.20;;;;;;5042983;28;20462;-80
2023/12/02 09:49:43;;;;;;;1.70;1.60;;;1.00;98.20;;;;;;5048721;28;20683;-80
2023/12/02 09:52:33;;;;;;;1.63;1.40;;;1.10;98.20;;;;;;5049058;28;20490;-80
2023/12/02 09:55:17;;;;;;;1.67;1.50;;;1.20;98.20;;;;;;5048980;28;20495;-80
2023/12/02 10:01:47;;;;;;;1.67;1.50;;;1.30;98.20;;;;;;5048877;28;20527;-79
2023/12/02 10:04:37;;;;;;;1.63;1.40;;;1.40;98.20;;;;;;5048596;28;20474;-79
2023/12/02 10:07:34;;;;;;;1.63;1.40;;;1.40;98.20;;;;;;5047020;28;20478;-79
2023/12/02 10:10:21;;;;;;;1.67;1.50;;;1.40;98.20;;;;;;5047417;28;20524;-79
2023/12/02 10:16:27;;;;;;;1.67;1.50;;;1.30;98.20;;;;;;5047664;28;20458;-79
2023/12/02 10:19:06;;;;;;;1.67;1.50;;;1.30;98.20;;;;;;5046202;28;20835;-79
2023/12/02 10:24:57;;;;;;;1.70;1.60;;;1.30;98.20;;;;;;5047623;28;20526;-79
2023/12/02 10:27:36;;;;;;;1.63;1.50;;;1.40;98.20;;;;;;5046016;28;20485;-79
2023/12/02 10:33:21;;;;;;;1.70;1.50;;;1.50;98.20;;;;;;5046304;28;20469;-79
2023/12/02 10:36:29;;;;;;;1.67;1.50;;;1.50;98.20;;;;;;5052562;28;20450;-80
2023/12/02 10:39:24;;;;;;;1.63;1.50;;;1.50;98.20;;;;;;5050066;28;20931;-80
2023/12/02 10:42:13;;;;;;;1.67;1.50;;;1.50;98.20;;;;;;5049305;28;20466;-80
2023/12/02 10:44:45;;;;;;;1.70;1.50;;;1.60;98.20;;;;;;5047209;28;20462;-80
2023/12/02 10:47:15;;;;;;;1.70;1.50;;;1.50;98.20;;;;;;5046173;28;20576;-80
2023/12/02 10:49:44;;;;;;;1.63;1.50;;;1.50;98.20;;;;;;5045861;28;20528;-80
2023/12/02 10:52:16;;;;;;;1.63;1.40;;;1.60;98.20;;;;;;5048341;28;20867;-80
2023/12/02 10:54:51;;;;;;;1.70;1.50;;;1.60;98.20;;;;;;5046428;28;20490;-79
2023/12/02 10:57:57;;;;;;;1.60;1.40;;;1.70;98.20;;;;;;5050875;28;20486;-81
2023/12/02 11:00:28;;;;;;;1.63;1.40;;;1.70;98.20;;;;;;5037824;28;20462;-84
2023/12/02 11:03:02;;;;;;;1.67;1.50;;;1.70;98.20;;;;;;5048788;28;20948;-80
2023/12/02 11:05:44;;;;;;;1.60;1.40;;;1.80;98.20;;;;;;5050070;28;20458;-81
2023/12/02 11:08:20;;;;;;;1.70;1.50;;;1.80;98.20;;;;;;5046588;28;20715;-81
2023/12/02 11:10:50;;;;;;;1.70;1.60;;;1.80;98.20;;;;;;5047091;28;20469;-81
2023/12/02 11:13:21;;;;;;;1.67;1.50;;;1.90;98.20;;;;;;5046835;28;20470;-82
2023/12/02 11:16:13;;;;;;;1.70;1.50;;;1.90;98.20;;;;;;5049853;28;20442;-81
2023/12/02 11:18:55;;;;;;;1.63;1.50;;;1.90;98.20;;;;;;5046440;28;20510;-82
2023/12/02 11:21:35;;;;;;;1.70;1.50;;;1.80;98.20;;;;;;5050864;28;20470;-82
2023/12/02 11:24:11;;;;;;;1.63;1.47;;;1.70;98.20;;;;;;5061913;28;20454;-79
2023/12/02 11:26:46;;;;;;;1.63;1.50;;;1.70;98.20;;;;;;5059489;28;21034;-84
2023/12/02 11:29:24;;;;;;;1.70;1.50;;;1.70;98.20;;;;;;5051672;28;20454;-81
2023/12/02 11:32:14;;;;;;;1.60;1.40;;;1.70;98.20;;;;;;5047309;28;20953;-80
2023/12/02 11:35:00;;;;;;;1.63;1.50;;;1.70;98.20;;;;;;5046705;28;20541;-80
2023/12/02 11:37:47;;;;;;;1.60;1.50;;;1.70;98.20;;;;;;5049704;28;20514;-82
2023/12/02 11:40:23;;;;;;;3.20;2.90;;;1.70;98.20;;;;;;5047711;28;20508;-83
2023/12/02 11:42:56;;;;;;;1.70;1.40;;;1.80;98.20;;;;;;5050526;28;20496;-80
2023/12/02 11:45:29;;;;;;;1.67;1.50;;;1.80;98.20;;;;;;5046139;28;20482;-80
2023/12/02 11:48:09;;;;;;;1.63;1.50;;;1.70;98.20;;;;;;5040077;28;21059;-80
2023/12/02 11:50:58;;;;;;;1.60;1.50;;;1.70;98.20;;;;;;5045573;28;20485;-80
2023/12/02 11:53:43;;;;;;;3.83;3.60;;;1.70;98.20;;;;;;5044321;28;20525;-80
2023/12/02 11:56:12;;;;;;;1.60;1.47;;;1.70;98.20;;;;;;5049390;28;20473;-81
2023/12/02 11:58:54;;;;;;;1.63;1.40;;;1.70;98.20;;;;;;5044269;28;20560;-80
2023/12/02 12:01:42;;;;;;;1.67;1.50;;;1.70;98.20;;;;;;5045881;28;20558;-79
2023/12/02 12:04:35;;;;;;;1.60;1.40;;;1.70;98.20;;;;;;5047726;28;20831;-80
2023/12/02 12:07:13;;;;;;;1.63;1.40;;;1.80;98.20;;;;;;5045631;28;20676;-80
2023/12/02 12:09:48;;;;;;;1.70;1.50;;;1.80;98.20;;;;;;5047621;28;20458;-80
2023/12/02 12:12:21;;;;;;;1.70;1.50;;;1.90;98.20;;;;;;5045621;28;20462;-80
2023/12/02 12:14:48;;;;;;;1.60;1.40;;;2.00;98.20;;;;;;5046478;28;20470;-80
2023/12/02 12:17:15;;;;;;;1.60;1.40;;;2.00;98.20;;;;;;5045282;28;20977;-80
2023/12/02 12:19:42;;;;;;;1.70;1.50;;;2.00;98.20;;;;;;5045277;28;20464;-80
2023/12/02 12:22:10;;;;;;;1.63;1.50;;;2.10;98.20;;;;;;5052583;28;20787;-80
2023/12/02 12:24:37;;;;;;;1.63;1.50;;;2.10;98.20;;;;;;5053377;28;20892;-80
2023/12/02 12:27:05;;;;;;;1.63;1.50;;;2.10;98.20;;;;;;5041490;28;20478;-80
2023/12/02 12:29:33;;;;;;;1.70;1.40;;;2.10;98.20;;;;;;5046149;28;21086;-80
2023/12/02 12:32:01;;;;;;;1.63;1.40;;;2.00;98.20;;;;;;5046267;28;20535;-80
2023/12/02 12:34:28;;;;;;;1.63;1.47;;;1.90;98.20;;;;;;5047401;28;20516;-80
2023/12/02 12:36:57;;;;;;;2.67;2.47;;;1.90;98.20;;;;;;5046707;28;20478;-80
2023/12/02 12:39:25;;;;;;;1.67;1.40;;;2.00;98.20;;;;;;5047550;28;20462;-81
2023/12/02 12:41:52;;;;;;;1.60;1.50;;;2.00;98.20;;;;;;5048445;28;20454;-81
2023/12/02 12:44:20;;;;;;;1.70;1.53;;;2.00;98.20;;;;;;5047329;28;20520;-81
2023/12/02 12:46:49;;;;;;;1.67;1.50;;;2.00;98.20;;;;;;5042992;28;20474;-81
2023/12/02 12:49:22;;;;;;;1.60;1.50;;;2.20;98.20;;;;;;5047471;28;20450;-80
2023/12/02 12:51:55;;;;;;;1.67;1.53;;;2.30;98.20;;;;;;5045872;28;20482;-80
2023/12/02 12:54:25;;;;;;;1.70;1.50;;;2.50;98.20;;;;;;5048669;28;20517;-81
2023/12/02 12:57:01;;;;;;;1.70;1.40;;;2.60;98.20;;;;;;5047102;28;20491;-81
2023/12/02 12:59:34;;;;;;;1.67;1.40;;;2.60;98.20;;;;;;5045168;28;20459;-80
2023/12/02 13:02:19;;;;;;;1.67;1.40;;;2.70;98.20;;;;;;5043416;28;20590;-81
2023/12/02 13:04:57;;;;;;;1.67;1.50;;;2.80;98.20;;;;;;5051417;28;20457;-80
2023/12/02 13:07:32;;;;;;;1.67;1.40;;;2.80;98.20;;;;;;5050832;28;20543;-80
2023/12/02 13:13:13;;;;;;;1.63;1.40;;;2.70;98.20;;;;;;5019510;28;20482;-81
2023/12/02 13:15:43;;;;;;;1.60;1.40;;;2.70;98.20;;;;;;5044354;28;20482;-81
2023/12/02 13:18:15;;;;;;;1.60;1.40;;;2.70;98.20;;;;;;5043643;28;20908;-81
2023/12/02 13:20:44;;;;;;;1.70;1.50;;;2.70;98.20;;;;;;5043716;28;20557;-81
2023/12/02 13:23:17;;;;;;;1.70;1.60;;;2.70;98.20;;;;;;5034415;28;20498;-81
2023/12/02 13:25:44;;;;;;;1.70;1.60;;;2.70;98.20;;;;;;5047347;28;20458;-81
2023/12/02 13:28:26;;;;;;;1.63;1.40;;;2.70;98.20;;;;;;5044104;28;20476;-82
2023/12/02 13:30:58;;;;;;;1.63;1.40;;;2.60;98.20;;;;;;5037941;28;20454;-79
2023/12/02 13:33:34;;;;;;;1.60;1.40;;;2.60;98.20;;;;;;5061884;28;20505;-79
2023/12/02 13:36:10;;;;;;;1.70;1.50;;;2.50;98.20;;;;;;5041943;28;20507;-79
2023/12/02 13:38:43;;;;;;;1.70;1.60;;;2.40;98.20;;;;;;5047035;28;20490;-79
2023/12/02 13:41:28;;;;;;;1.70;1.60;;;2.30;98.20;;;;;;5040896;28;20545;-80
2023/12/02 13:43:58;;;;;;;1.70;1.60;;;2.20;98.20;;;;;;5051178;28;20458;-82
2023/12/02 13:46:33;;;;;;;1.67;1.40;;;2.10;98.20;;;;;;5041396;28;20506;-81
2023/12/02 13:49:09;;;;;;;1.60;1.40;;;2.00;98.20;;;;;;5049759;28;20552;-79
2023/12/02 13:51:42;;;;;;;1.67;1.50;;;2.00;98.20;;;;;;5038607;28;20465;-81
2023/12/02 13:54:24;;;;;;;1.60;1.40;;;2.00;98.20;;;;;;5051049;28;20466;-81
2023/12/02 13:57:03;;;;;;;1.63;1.40;;;1.90;98.20;;;;;;5044052;28;20712;-81
2023/12/02 13:59:43;;;;;;;1.70;1.60;;;1.90;98.20;;;;;;5051407;28;20524;-80
2023/12/02 14:02:22;;;;;;;1.60;1.40;;;1.90;98.20;;;;;;5040963;28;20480;-81
2023/12/02 14:05:10;;;;;;;1.63;1.40;;;1.80;98.20;;;;;;5050128;28;20461;-81
2023/12/02 14:07:50;;;;;;;1.67;1.50;;;1.80;98.20;;;;;;5020645;28;20909;-81
2023/12/02 14:10:26;;;;;;;1.67;1.53;;;1.70;98.20;;;;;;5024550;28;20463;-82
2023/12/02 14:13:20;;;;;;;1.60;1.50;;;1.70;98.20;;;;;;5051333;28;20485;-82
2023/12/02 14:16:14;;;;;;;1.70;1.53;;;1.60;98.20;;;;;;5031881;28;20505;-81
2023/12/02 14:19:38;;;;;;;1.73;1.63;;;1.60;98.20;;;;;;5042669;28;20486;-81
2023/12/02 14:22:56;;;;;;;1.67;1.50;;;1.50;98.20;;;;;;5047087;28;20601;-80
2023/12/02 14:26:06;;;;;;;1.70;1.60;;;1.40;98.20;;;;;;5047134;28;20471;-82
2023/12/02 14:32:31;;;;;;;;;;;;;;;;;;;;;
2023/12/02 14:36:03;;;;;;;;;;;;;;;;;;;;;
2023/12/02 14:39:04;;;;;;;1.70;1.60;;;1.50;98.20;;;;;;4952103;28;20478;-83
2023/12/02 14:41:48;;;;;;;1.70;1.50;;;1.60;98.20;;;;;;5016482;28;21018;-83
2023/12/02 14:44:27;;;;;;;1.70;1.60;;;1.60;98.20;;;;;;5044977;28;21265;-82
2023/12/02 14:46:56;;;;;;;1.70;1.50;;;1.60;98.20;;;;;;5040677;28;20481;-82